createdAt,value
2018-12-10T00:00:04.609Z,1001.32
2018-12-10T00:01:10.139Z,1001.32
2018-12-10T00:02:15.670Z,1001.30
2018-12-10T00:03:21.204Z,1001.35
2018-12-10T00:04:26.741Z,1001.33
2018-12-10T00:05:32.271Z,1001.44
2018-12-10T00:06:37.802Z,1001.44
2018-12-10T00:07:43.329Z,1001.51
2018-12-10T00:08:48.861Z,1001.59
2018-12-10T00:09:54.395Z,1001.58
2018-12-10T00:10:59.929Z,1001.52
2018-12-10T00:12:05.465Z,1001.50
2018-12-10T00:13:10.993Z,1001.53
2018-12-10T00:14:16.532Z,1001.53
2018-12-10T00:15:22.058Z,1001.59
2018-12-10T00:16:27.588Z,1001.65
2018-12-10T00:17:33.124Z,1001.66
2018-12-10T00:18:38.652Z,1001.66
2018-12-10T00:19:44.192Z,1001.72
2018-12-10T00:20:49.722Z,1001.64
2018-12-10T00:21:55.253Z,1001.70
2018-12-10T00:23:00.782Z,1001.67
2018-12-10T00:24:06.314Z,1001.68
2018-12-10T00:25:11.843Z,1001.68
2018-12-10T00:26:17.379Z,1001.70
2018-12-10T00:27:22.911Z,1001.71
2018-12-10T00:28:28.440Z,1001.69
2018-12-10T00:29:33.976Z,1001.61
2018-12-10T00:30:39.505Z,1001.58
2018-12-10T00:31:45.035Z,1001.63
2018-12-10T00:32:50.570Z,1001.60
2018-12-10T00:33:56.109Z,1001.66
2018-12-10T00:35:01.634Z,1001.75
2018-12-10T00:36:07.171Z,1001.76
2018-12-10T00:37:12.701Z,1001.81
2018-12-10T00:38:18.231Z,1001.86
2018-12-10T00:39:23.771Z,1001.83
2018-12-10T00:40:29.294Z,1001.84
2018-12-10T00:41:34.823Z,1001.85
2018-12-10T00:42:40.359Z,1001.87
2018-12-10T00:43:45.889Z,1001.91
2018-12-10T00:44:51.421Z,1001.97
2018-12-10T00:45:56.956Z,1001.96
2018-12-10T00:47:02.491Z,1001.97
2018-12-10T00:48:08.018Z,1001.99
2018-12-10T00:49:13.551Z,1002.03
2018-12-10T00:50:19.088Z,1002.02
2018-12-10T00:51:24.616Z,1002.05
2018-12-10T00:52:30.145Z,1002.09
2018-12-10T00:53:35.687Z,1002.08
2018-12-10T00:54:41.209Z,1002.04
2018-12-10T00:55:46.743Z,1002.05
2018-12-10T00:56:52.275Z,1002.06
2018-12-10T00:57:57.810Z,1002.09
2018-12-10T00:59:03.342Z,1002.06
2018-12-10T01:00:08.872Z,1002.15
2018-12-10T01:01:14.399Z,1002.13
2018-12-10T01:02:19.937Z,1002.16
2018-12-10T01:03:25.470Z,1002.15
2018-12-10T01:04:31.004Z,1002.18
2018-12-10T01:05:36.533Z,1002.24
2018-12-10T01:06:42.063Z,1002.22
2018-12-10T01:07:47.594Z,1002.40
2018-12-10T01:08:53.170Z,1002.27
2018-12-10T01:09:58.661Z,1002.27
2018-12-10T01:11:04.191Z,1002.37
2018-12-10T01:12:09.721Z,1002.41
2018-12-10T01:13:15.263Z,1002.40
2018-12-10T01:14:20.785Z,1002.46
2018-12-10T01:15:26.321Z,1002.46
2018-12-10T01:16:31.848Z,1002.50
2018-12-10T01:17:37.380Z,1002.51
2018-12-10T01:18:42.915Z,1002.54
2018-12-10T01:19:48.445Z,1002.48
2018-12-10T01:20:53.983Z,1002.61
2018-12-10T01:21:59.511Z,1002.64
2018-12-10T01:23:05.041Z,1002.63
2018-12-10T01:24:10.575Z,1002.69
2018-12-10T01:25:16.107Z,1002.67
2018-12-10T01:26:21.640Z,1002.71
2018-12-10T01:27:27.172Z,1002.70
2018-12-10T01:28:32.705Z,1002.67
2018-12-10T01:29:38.235Z,1002.67
2018-12-10T01:30:43.763Z,1002.73
2018-12-10T01:31:49.304Z,1002.75
2018-12-10T01:32:54.837Z,1002.80
2018-12-10T01:34:00.366Z,1002.75
2018-12-10T01:35:05.891Z,1002.77
2018-12-10T01:36:11.423Z,1002.82
2018-12-10T01:37:16.954Z,1002.82
2018-12-10T01:38:22.489Z,1002.80
2018-12-10T01:39:28.023Z,1002.83
2018-12-10T01:40:33.554Z,1002.89
2018-12-10T01:41:39.094Z,1002.85
2018-12-10T01:42:44.616Z,1002.82
2018-12-10T01:43:50.146Z,1002.85
2018-12-10T01:44:55.677Z,1002.80
2018-12-10T01:46:01.212Z,1002.88
2018-12-10T01:47:06.741Z,1002.94
2018-12-10T01:48:12.280Z,1002.88
2018-12-10T01:49:17.809Z,1002.91
2018-12-10T01:50:23.338Z,1002.85
2018-12-10T01:51:28.879Z,1002.95
2018-12-10T01:52:34.399Z,1002.99
2018-12-10T01:53:39.932Z,1002.98
2018-12-10T01:54:45.467Z,1003.01
2018-12-10T01:55:50.997Z,1002.97
2018-12-10T01:56:56.529Z,1002.97
2018-12-10T01:58:02.064Z,1002.98
2018-12-10T01:59:07.592Z,1003.02
2018-12-10T02:00:13.129Z,1003.03
2018-12-10T02:01:18.663Z,1003.04
2018-12-10T02:02:24.195Z,1003.08
2018-12-10T02:03:29.721Z,1002.98
2018-12-10T02:04:35.250Z,1003.04
2018-12-10T02:05:40.784Z,1003.12
2018-12-10T02:06:46.314Z,1003.05
2018-12-10T02:07:51.844Z,1003.12
2018-12-10T02:08:57.380Z,1003.13
2018-12-10T02:10:02.911Z,1003.15
2018-12-10T02:11:08.447Z,1003.09
2018-12-10T02:12:13.974Z,1003.10
2018-12-10T02:13:19.509Z,1003.16
2018-12-10T02:14:25.038Z,1003.17
2018-12-10T02:15:30.571Z,1003.19
2018-12-10T02:16:36.099Z,1003.19
2018-12-10T02:17:41.634Z,1003.22
2018-12-10T02:18:47.167Z,1003.19
2018-12-10T02:19:52.699Z,1003.27
2018-12-10T02:20:58.227Z,1003.27
2018-12-10T02:22:03.760Z,1003.31
2018-12-10T02:23:09.296Z,1003.27
2018-12-10T02:24:14.828Z,1003.33
2018-12-10T02:25:20.353Z,1003.29
2018-12-10T02:26:25.891Z,1003.38
2018-12-10T02:27:31.419Z,1003.42
2018-12-10T02:28:36.962Z,1003.46
2018-12-10T02:29:42.488Z,1003.48
2018-12-10T02:30:48.015Z,1003.49
2018-12-10T02:31:53.544Z,1003.47
2018-12-10T02:32:59.077Z,1003.49
2018-12-10T02:34:04.609Z,1003.50
2018-12-10T02:35:10.144Z,1003.54
2018-12-10T02:36:15.675Z,1003.56
2018-12-10T02:37:21.211Z,1003.56
2018-12-10T02:38:26.735Z,1003.60
2018-12-10T02:39:32.268Z,1003.56
2018-12-10T02:40:37.798Z,1003.58
2018-12-10T02:41:43.332Z,1003.60
2018-12-10T02:42:48.864Z,1003.59
2018-12-10T02:43:54.402Z,1003.53
2018-12-10T02:44:59.928Z,1003.60
2018-12-10T02:46:05.463Z,1003.47
2018-12-10T02:47:10.992Z,1003.60
2018-12-10T02:48:16.521Z,1003.58
2018-12-10T02:49:22.052Z,1003.66
2018-12-10T02:50:27.586Z,1003.60
2018-12-10T02:51:33.116Z,1003.63
2018-12-10T02:52:38.651Z,1003.62
2018-12-10T02:53:44.186Z,1003.66
2018-12-10T02:54:49.721Z,1003.72
2018-12-10T02:55:55.245Z,1003.70
2018-12-10T02:57:00.775Z,1003.70
2018-12-10T02:58:06.309Z,1003.76
2018-12-10T02:59:11.839Z,1003.73
2018-12-10T03:00:17.372Z,1003.67
2018-12-10T03:01:22.906Z,1003.65
2018-12-10T03:02:28.440Z,1003.69
2018-12-10T03:03:33.970Z,1003.68
2018-12-10T03:04:39.495Z,1003.79
2018-12-10T03:05:45.027Z,1003.74
2018-12-10T03:06:50.575Z,1003.74
2018-12-10T03:07:56.090Z,1003.79
2018-12-10T03:09:01.632Z,1003.82
2018-12-10T03:10:07.157Z,1003.84
2018-12-10T03:11:12.693Z,1003.87
2018-12-10T03:12:18.220Z,1003.80
2018-12-10T03:13:23.752Z,1003.85
2018-12-10T03:14:29.284Z,1003.89
2018-12-10T03:15:34.812Z,1003.82
2018-12-10T03:16:40.345Z,1003.93
2018-12-10T03:17:45.878Z,1003.90
2018-12-10T03:18:51.408Z,1003.91
2018-12-10T03:19:56.942Z,1003.88
2018-12-10T03:21:02.483Z,1003.94
2018-12-10T03:22:08.005Z,1003.91
2018-12-10T03:23:13.539Z,1003.97
2018-12-10T03:24:19.070Z,1004.00
2018-12-10T03:25:24.608Z,1004.04
2018-12-10T03:26:30.132Z,1004.06
2018-12-10T03:27:35.667Z,1004.03
2018-12-10T03:28:41.197Z,1004.04
2018-12-10T03:29:46.731Z,1004.06
2018-12-10T03:30:52.280Z,1004.08
2018-12-10T03:31:57.794Z,1004.00
2018-12-10T03:33:03.341Z,1004.05
2018-12-10T03:34:08.854Z,1004.12
2018-12-10T03:35:14.387Z,1004.15
2018-12-10T03:36:19.925Z,1004.14
2018-12-10T03:37:25.450Z,1004.21
2018-12-10T03:38:30.990Z,1004.27
2018-12-10T03:39:36.521Z,1004.25
2018-12-10T03:40:42.044Z,1004.27
2018-12-10T03:41:47.574Z,1004.27
2018-12-10T03:42:53.113Z,1004.28
2018-12-10T03:43:58.642Z,1004.30
2018-12-10T03:45:04.179Z,1004.32
2018-12-10T03:46:09.705Z,1004.29
2018-12-10T03:47:15.241Z,1004.31
2018-12-10T03:48:20.771Z,1004.38
2018-12-10T03:49:26.301Z,1004.33
2018-12-10T03:50:31.833Z,1004.45
2018-12-10T03:51:37.363Z,1004.39
2018-12-10T03:52:42.901Z,1004.45
2018-12-10T03:53:48.432Z,1004.44
2018-12-10T03:54:53.964Z,1004.27
2018-12-10T03:55:59.496Z,1004.28
2018-12-10T03:57:05.037Z,1004.27
2018-12-10T03:58:10.555Z,1004.39
2018-12-10T03:59:16.086Z,1004.33
2018-12-10T04:00:21.617Z,1004.33
2018-12-10T04:01:27.149Z,1004.40
2018-12-10T04:02:32.686Z,1004.36
2018-12-10T04:03:38.213Z,1004.34
2018-12-10T04:04:43.749Z,1004.39
2018-12-10T04:05:49.275Z,1004.36
2018-12-10T04:06:54.808Z,1004.38
2018-12-10T04:08:00.344Z,1004.39
2018-12-10T04:09:05.875Z,1004.39
2018-12-10T04:10:11.403Z,1004.38
2018-12-10T04:11:16.934Z,1004.44
2018-12-10T04:12:22.612Z,1004.41
2018-12-10T04:13:27.997Z,1004.37
2018-12-10T04:14:33.532Z,1004.44
2018-12-10T04:15:39.068Z,1004.49
2018-12-10T04:16:44.595Z,1004.50
2018-12-10T04:17:50.127Z,1004.48
2018-12-10T04:18:55.659Z,1004.49
2018-12-10T04:20:01.190Z,1004.49
2018-12-10T04:21:06.724Z,1004.48
2018-12-10T04:22:12.252Z,1004.52
2018-12-10T04:23:17.786Z,1004.50
2018-12-10T04:24:23.319Z,1004.53
2018-12-10T04:25:28.849Z,1004.53
2018-12-10T04:26:34.381Z,1004.55
2018-12-10T04:27:39.924Z,1004.61
2018-12-10T04:28:45.455Z,1004.67
2018-12-10T04:29:50.977Z,1004.62
2018-12-10T04:30:56.507Z,1004.68
2018-12-10T04:32:02.039Z,1004.68
2018-12-10T04:33:07.571Z,1004.72
2018-12-10T04:34:13.103Z,1004.72
2018-12-10T04:35:18.632Z,1004.73
2018-12-10T04:36:24.168Z,1004.81
2018-12-10T04:37:29.702Z,1004.84
2018-12-10T04:38:35.228Z,1004.79
2018-12-10T04:39:40.764Z,1004.80
2018-12-10T04:40:46.295Z,1004.75
2018-12-10T04:41:51.826Z,1004.74
2018-12-10T04:42:57.358Z,1004.78
2018-12-10T04:44:02.887Z,1004.79
2018-12-10T04:45:08.422Z,1004.80
2018-12-10T04:46:13.953Z,1004.83
2018-12-10T04:47:19.485Z,1004.88
2018-12-10T04:48:25.022Z,1004.86
2018-12-10T04:49:30.552Z,1004.90
2018-12-10T04:50:36.082Z,1004.77
2018-12-10T04:51:41.611Z,1004.84
2018-12-10T04:52:47.142Z,1004.87
2018-12-10T04:53:52.674Z,1004.90
2018-12-10T04:54:58.206Z,1004.90
2018-12-10T04:56:03.740Z,1004.85
2018-12-10T04:57:09.273Z,1004.90
2018-12-10T04:58:14.808Z,1004.91
2018-12-10T04:59:20.335Z,1004.88
2018-12-10T05:00:25.866Z,1004.92
2018-12-10T05:01:31.399Z,1004.95
2018-12-10T05:02:36.939Z,1004.94
2018-12-10T05:03:42.467Z,1004.91
2018-12-10T05:04:47.996Z,1004.92
2018-12-10T05:05:53.590Z,1005.00
2018-12-10T05:06:59.067Z,1004.97
2018-12-10T05:08:05.463Z,1005.03
2018-12-10T05:09:10.128Z,1005.03
2018-12-10T05:10:15.657Z,1005.07
2018-12-10T05:11:21.183Z,1005.11
2018-12-10T05:12:26.723Z,1005.09
2018-12-10T05:13:32.254Z,1005.12
2018-12-10T05:14:37.778Z,1005.09
2018-12-10T05:15:43.313Z,1005.13
2018-12-10T05:16:48.848Z,1005.16
2018-12-10T05:17:54.376Z,1005.19
2018-12-10T05:18:59.906Z,1005.21
2018-12-10T05:20:05.437Z,1005.23
2018-12-10T05:21:10.967Z,1005.23
2018-12-10T05:22:16.502Z,1005.21
2018-12-10T05:23:22.034Z,1005.26
2018-12-10T05:24:27.568Z,1005.23
2018-12-10T05:25:33.104Z,1005.23
2018-12-10T05:26:38.631Z,1005.20
2018-12-10T05:27:44.159Z,1005.17
2018-12-10T05:28:49.693Z,1005.20
2018-12-10T05:29:55.226Z,1005.23
2018-12-10T05:31:00.755Z,1005.22
2018-12-10T05:32:06.290Z,1005.24
2018-12-10T05:33:11.818Z,1005.22
2018-12-10T05:34:17.355Z,1005.19
2018-12-10T05:35:22.881Z,1005.27
2018-12-10T05:36:28.415Z,1005.31
2018-12-10T05:37:33.944Z,1005.36
2018-12-10T05:38:39.479Z,1005.38
2018-12-10T05:39:45.088Z,1005.36
2018-12-10T05:40:50.547Z,1005.41
2018-12-10T05:41:56.070Z,1005.36
2018-12-10T05:43:01.601Z,1005.37
2018-12-10T05:44:07.136Z,1005.41
2018-12-10T05:45:12.671Z,1005.38
2018-12-10T05:46:18.193Z,1005.38
2018-12-10T05:47:23.726Z,1005.37
2018-12-10T05:48:29.257Z,1005.37
2018-12-10T05:49:34.791Z,1005.42
2018-12-10T05:50:40.321Z,1005.37
2018-12-10T05:51:45.854Z,1005.39
2018-12-10T05:52:51.382Z,1005.45
2018-12-10T05:53:56.914Z,1005.46
2018-12-10T05:55:02.453Z,1005.45
2018-12-10T05:56:07.980Z,1005.47
2018-12-10T05:57:13.511Z,1005.46
2018-12-10T05:58:19.047Z,1005.48
2018-12-10T05:59:24.577Z,1005.51
2018-12-10T06:00:30.108Z,1005.60
2018-12-10T06:01:35.632Z,1005.57
2018-12-10T06:02:41.168Z,1005.59
2018-12-10T06:03:46.695Z,1005.53
2018-12-10T06:04:52.228Z,1005.45
2018-12-10T06:05:57.769Z,1005.47
2018-12-10T06:07:03.292Z,1005.42
2018-12-10T06:08:08.826Z,1005.54
2018-12-10T06:09:14.354Z,1005.54
2018-12-10T06:10:19.887Z,1005.53
2018-12-10T06:11:25.419Z,1005.55
2018-12-10T06:12:30.950Z,1005.49
2018-12-10T06:13:36.485Z,1005.50
2018-12-10T06:14:42.023Z,1005.46
2018-12-10T06:15:47.553Z,1005.49
2018-12-10T06:16:53.081Z,1005.52
2018-12-10T06:17:58.613Z,1005.52
2018-12-10T06:19:04.138Z,1005.50
2018-12-10T06:20:09.669Z,1005.56
2018-12-10T06:21:15.199Z,1005.56
2018-12-10T06:22:20.732Z,1005.53
2018-12-10T06:23:26.263Z,1005.54
2018-12-10T06:24:31.903Z,1005.53
2018-12-10T06:25:37.327Z,1005.45
2018-12-10T06:26:42.856Z,1005.49
2018-12-10T06:27:48.389Z,1005.52
2018-12-10T06:28:53.923Z,1005.60
2018-12-10T06:29:59.448Z,1005.61
2018-12-10T06:31:04.989Z,1005.58
2018-12-10T06:32:10.522Z,1005.55
2018-12-10T06:33:16.052Z,1005.63
2018-12-10T06:34:21.584Z,1005.66
2018-12-10T06:35:27.108Z,1005.71
2018-12-10T06:36:32.640Z,1005.73
2018-12-10T06:37:38.174Z,1005.76
2018-12-10T06:38:43.708Z,1005.80
2018-12-10T06:39:49.236Z,1005.82
2018-12-10T06:40:54.765Z,1005.80
2018-12-10T06:42:00.299Z,1005.83
2018-12-10T06:43:05.830Z,1005.87
2018-12-10T06:44:11.366Z,1005.82
2018-12-10T06:45:16.897Z,1005.85
2018-12-10T06:46:22.427Z,1005.84
2018-12-10T06:47:27.954Z,1005.96
2018-12-10T06:48:33.485Z,1005.95
2018-12-10T06:49:39.018Z,1006.00
2018-12-10T06:50:44.549Z,1006.06
2018-12-10T06:51:50.084Z,1006.06
2018-12-10T06:52:55.612Z,1006.03
2018-12-10T06:54:01.141Z,1006.05
2018-12-10T06:55:06.673Z,1006.02
2018-12-10T06:56:12.202Z,1006.07
2018-12-10T06:57:17.742Z,1006.03
2018-12-10T06:58:23.265Z,1006.01
2018-12-10T06:59:28.800Z,1006.05
2018-12-10T07:00:34.334Z,1006.04
2018-12-10T07:01:39.860Z,1005.99
2018-12-10T07:02:45.392Z,1005.97
2018-12-10T07:03:50.924Z,1005.93
2018-12-10T07:04:56.455Z,1006.04
2018-12-10T07:06:01.994Z,1005.99
2018-12-10T07:07:07.518Z,1005.97
2018-12-10T07:08:13.049Z,1006.03
2018-12-10T07:09:18.582Z,1006.05
2018-12-10T07:10:24.118Z,1006.05
2018-12-10T07:11:29.643Z,1006.11
2018-12-10T07:12:35.176Z,1006.10
2018-12-10T07:13:40.705Z,1006.09
2018-12-10T07:14:46.235Z,1006.10
2018-12-10T07:15:51.767Z,1006.14
2018-12-10T07:16:57.299Z,1006.11
2018-12-10T07:18:02.831Z,1006.11
2018-12-10T07:19:08.364Z,1006.16
2018-12-10T07:20:13.897Z,1006.27
2018-12-10T07:21:19.423Z,1006.34
2018-12-10T07:22:24.965Z,1006.32
2018-12-10T07:23:30.489Z,1006.44
2018-12-10T07:24:36.019Z,1006.27
2018-12-10T07:25:41.555Z,1006.42
2018-12-10T07:26:47.081Z,1006.13
2018-12-10T07:27:52.615Z,1006.32
2018-12-10T07:28:58.159Z,1006.37
2018-12-10T07:30:03.675Z,1006.20
2018-12-10T07:31:09.207Z,1006.10
2018-12-10T07:32:14.738Z,1006.23
2018-12-10T07:33:20.270Z,1006.23
2018-12-10T07:34:25.803Z,1006.26
2018-12-10T07:35:31.329Z,1006.25
2018-12-10T07:36:36.862Z,1006.24
2018-12-10T07:37:42.391Z,1006.09
2018-12-10T07:38:47.929Z,1006.23
2018-12-10T07:39:53.454Z,1006.26
2018-12-10T07:40:58.985Z,1006.20
2018-12-10T07:42:04.519Z,1006.28
2018-12-10T07:43:10.053Z,1006.28
2018-12-10T07:44:15.584Z,1006.37
2018-12-10T07:45:21.114Z,1006.40
2018-12-10T07:46:26.650Z,1006.39
2018-12-10T07:47:32.173Z,1006.38
2018-12-10T07:48:37.711Z,1006.37
2018-12-10T07:49:43.235Z,1006.45
2018-12-10T07:50:48.766Z,1006.44
2018-12-10T07:51:54.295Z,1006.48
2018-12-10T07:52:59.831Z,1006.51
2018-12-10T07:54:05.362Z,1006.53
2018-12-10T07:55:10.897Z,1006.49
2018-12-10T07:56:16.426Z,1006.47
2018-12-10T07:57:21.959Z,1006.42
2018-12-10T07:58:27.492Z,1006.51
2018-12-10T07:59:33.020Z,1006.54
2018-12-10T08:00:38.548Z,1006.53
2018-12-10T08:01:44.085Z,1006.56
2018-12-10T08:02:49.613Z,1006.62
2018-12-10T08:03:55.141Z,1006.57
2018-12-10T08:05:00.677Z,1006.60
2018-12-10T08:06:06.206Z,1006.57
2018-12-10T08:07:11.735Z,1006.62
2018-12-10T08:08:17.267Z,1006.63
2018-12-10T08:09:22.801Z,1006.64
2018-12-10T08:10:28.335Z,1006.63
2018-12-10T08:11:33.862Z,1006.73
2018-12-10T08:12:39.398Z,1006.65
2018-12-10T08:13:44.926Z,1006.71
2018-12-10T08:14:50.456Z,1006.68
2018-12-10T08:15:55.992Z,1006.72
2018-12-10T08:17:01.522Z,1006.71
2018-12-10T08:18:07.055Z,1006.78
2018-12-10T08:19:12.584Z,1006.77
2018-12-10T08:20:18.117Z,1006.75
2018-12-10T08:21:23.644Z,1006.82
2018-12-10T08:22:29.176Z,1006.85
2018-12-10T08:23:34.705Z,1006.82
2018-12-10T08:24:40.238Z,1006.85
2018-12-10T08:25:45.780Z,1006.96
2018-12-10T08:26:51.300Z,1006.87
2018-12-10T08:27:56.833Z,1006.89
2018-12-10T08:30:07.895Z,1006.89
2018-12-10T08:31:13.428Z,1006.89
2018-12-10T08:31:23.864Z,1006.84
2018-12-10T08:32:18.963Z,1006.91
2018-12-10T08:33:24.489Z,1006.87
2018-12-10T08:34:30.028Z,1006.92
2018-12-10T08:35:40.819Z,1006.89
2018-12-10T08:36:41.086Z,1006.94
2018-12-10T08:37:46.619Z,1006.95
2018-12-10T08:38:52.154Z,1006.91
2018-12-10T08:39:57.683Z,1006.89
2018-12-10T08:41:03.210Z,1006.90
2018-12-10T08:42:08.747Z,1006.93
2018-12-10T08:43:14.270Z,1006.89
2018-12-10T08:44:19.803Z,1006.91
2018-12-10T08:45:25.337Z,1006.90
2018-12-10T08:46:30.869Z,1006.88
2018-12-10T08:47:36.396Z,1006.91
2018-12-10T08:48:41.932Z,1006.86
2018-12-10T08:49:47.460Z,1006.93
2018-12-10T08:50:52.992Z,1007.01
2018-12-10T08:51:58.523Z,1007.04
2018-12-10T08:53:04.056Z,1007.02
2018-12-10T08:54:09.587Z,1007.04
2018-12-10T08:55:15.128Z,1006.95
2018-12-10T08:56:20.652Z,1007.02
2018-12-10T08:57:26.184Z,1007.10
2018-12-10T08:58:31.718Z,1007.01
2018-12-10T08:59:37.246Z,1006.98
2018-12-10T09:00:42.782Z,1007.05
2018-12-10T09:01:48.310Z,1007.04
2018-12-10T09:02:53.842Z,1007.06
2018-12-10T09:03:59.384Z,1007.11
2018-12-10T09:05:04.911Z,1007.04
2018-12-10T09:06:10.442Z,1007.08
2018-12-10T09:07:15.969Z,1007.01
2018-12-10T09:08:21.508Z,1007.01
2018-12-10T09:09:27.037Z,1007.04
2018-12-10T09:10:34.615Z,1007.07
2018-12-10T09:11:38.106Z,1006.96
2018-12-10T09:12:47.126Z,1007.01
2018-12-10T09:13:49.167Z,1006.94
2018-12-10T09:14:54.697Z,1007.11
2018-12-10T09:16:00.257Z,1007.09
2018-12-10T09:17:05.759Z,1007.07
2018-12-10T09:18:11.294Z,1007.11
2018-12-10T09:19:16.825Z,1007.02
2018-12-10T09:20:22.361Z,1007.09
2018-12-10T09:21:27.887Z,1007.20
2018-12-10T09:22:33.422Z,1007.20
2018-12-10T09:23:38.950Z,1007.21
2018-12-10T09:24:44.482Z,1007.17
2018-12-10T09:25:50.021Z,1007.18
2018-12-10T09:26:55.548Z,1007.21
2018-12-10T09:28:01.080Z,1007.30
2018-12-10T09:29:06.616Z,1007.30
2018-12-10T09:30:12.141Z,1007.34
2018-12-10T09:31:17.673Z,1007.37
2018-12-10T09:32:23.206Z,1007.41
2018-12-10T09:33:28.738Z,1007.46
2018-12-10T09:34:34.273Z,1007.47
2018-12-10T09:35:39.806Z,1007.52
2018-12-10T09:36:45.336Z,1007.57
2018-12-10T09:37:50.872Z,1007.60
2018-12-10T09:38:56.408Z,1007.62
2018-12-10T09:40:01.932Z,1007.71
2018-12-10T09:41:07.528Z,1007.53
2018-12-10T09:42:12.995Z,1007.67
2018-12-10T09:43:18.533Z,1007.56
2018-12-10T09:44:24.062Z,1007.52
2018-12-10T09:45:29.596Z,1007.46
2018-12-10T09:46:35.124Z,1007.52
2018-12-10T09:47:40.661Z,1007.51
2018-12-10T09:48:46.189Z,1007.45
2018-12-10T09:49:51.720Z,1007.50
2018-12-10T09:50:57.252Z,1007.54
2018-12-10T09:52:02.784Z,1007.51
2018-12-10T09:53:08.316Z,1007.55
2018-12-10T09:54:13.851Z,1007.59
2018-12-10T09:55:19.384Z,1007.61
2018-12-10T09:56:24.911Z,1007.61
2018-12-10T09:57:30.445Z,1007.63
2018-12-10T09:58:35.992Z,1007.59
2018-12-10T09:59:41.508Z,1007.67
2018-12-10T10:00:47.048Z,1007.64
2018-12-10T10:01:52.571Z,1007.62
2018-12-10T10:02:58.104Z,1007.62
2018-12-10T10:04:03.642Z,1007.69
2018-12-10T10:05:09.186Z,1007.67
2018-12-10T10:06:14.703Z,1007.71
2018-12-10T10:07:28.238Z,1007.76
2018-12-10T10:08:25.763Z,1007.85
2018-12-10T10:09:31.298Z,1007.94
2018-12-10T10:10:36.847Z,1007.95
2018-12-10T10:11:42.369Z,1008.09
2018-12-10T10:12:47.906Z,1008.10
2018-12-10T10:13:53.429Z,1008.12
2018-12-10T10:14:58.958Z,1008.16
2018-12-10T10:16:04.489Z,1008.23
2018-12-10T10:17:10.023Z,1008.18
2018-12-10T10:18:15.551Z,1008.15
2018-12-10T10:19:21.088Z,1008.05
2018-12-10T10:20:26.618Z,1008.03
2018-12-10T10:21:32.147Z,1008.08
2018-12-10T10:22:37.685Z,1008.03
2018-12-10T10:23:43.211Z,1007.98
2018-12-10T10:24:48.746Z,1007.98
2018-12-10T10:25:54.288Z,1007.97
2018-12-10T10:26:59.806Z,1007.92
2018-12-10T10:28:05.336Z,1007.90
2018-12-10T10:29:10.870Z,1007.89
2018-12-10T10:30:16.401Z,1007.85
2018-12-10T10:31:21.932Z,1007.84
2018-12-10T10:32:27.465Z,1007.74
2018-12-10T10:33:33.000Z,1007.76
2018-12-10T10:34:38.526Z,1007.76
2018-12-10T10:35:44.060Z,1007.71
2018-12-10T10:36:49.589Z,1007.73
2018-12-10T10:37:55.120Z,1007.75
2018-12-10T10:39:00.654Z,1007.73
2018-12-10T10:40:06.398Z,1007.73
2018-12-10T10:41:11.715Z,1007.69
2018-12-10T10:42:17.248Z,1007.68
2018-12-10T10:43:22.782Z,1007.63
2018-12-10T10:44:28.310Z,1007.63
2018-12-10T10:45:34.958Z,1007.59
2018-12-10T10:46:39.376Z,1007.54
2018-12-10T10:47:44.909Z,1007.58
2018-12-10T10:48:50.440Z,1007.55
2018-12-10T10:49:55.970Z,1007.60
2018-12-10T10:51:01.504Z,1007.62
2018-12-10T10:52:07.031Z,1007.57
2018-12-10T10:53:12.569Z,1007.59
2018-12-10T10:54:18.102Z,1007.62
2018-12-10T10:55:23.631Z,1007.58
2018-12-10T10:56:29.159Z,1007.54
2018-12-10T10:57:34.693Z,1007.51
2018-12-10T10:58:40.228Z,1007.52
2018-12-10T10:59:45.756Z,1007.54
2018-12-10T11:00:51.290Z,1007.52
2018-12-10T11:01:56.818Z,1007.53
2018-12-10T11:03:02.354Z,1007.51
2018-12-10T11:04:07.879Z,1007.49
2018-12-10T11:05:13.417Z,1007.47
2018-12-10T11:06:18.948Z,1007.50
2018-12-10T11:07:24.482Z,1007.47
2018-12-10T11:08:30.013Z,1007.54
2018-12-10T11:09:35.540Z,1007.52
2018-12-10T11:10:41.076Z,1007.62
2018-12-10T11:11:46.608Z,1007.63
2018-12-10T11:12:52.137Z,1007.54
2018-12-10T11:13:57.667Z,1007.64
2018-12-10T11:15:03.203Z,1007.56
2018-12-10T11:16:08.735Z,1007.52
2018-12-10T11:17:14.265Z,1007.49
2018-12-10T11:18:19.795Z,1007.46
2018-12-10T11:19:25.325Z,1007.52
2018-12-10T11:20:30.867Z,1007.51
2018-12-10T11:21:36.392Z,1007.46
2018-12-10T11:22:41.924Z,1007.49
2018-12-10T11:23:47.455Z,1007.47
2018-12-10T11:24:52.992Z,1007.49
2018-12-10T11:25:58.520Z,1007.42
2018-12-10T11:27:04.052Z,1007.45
2018-12-10T11:28:09.580Z,1007.47
2018-12-10T11:29:15.112Z,1007.46
2018-12-10T11:30:20.651Z,1007.48
2018-12-10T11:31:26.179Z,1007.44
2018-12-10T11:32:31.710Z,1007.49
2018-12-10T11:33:37.245Z,1007.54
2018-12-10T11:34:42.775Z,1007.47
2018-12-10T11:35:48.310Z,1007.36
2018-12-10T11:36:53.838Z,1007.30
2018-12-10T11:37:59.376Z,1007.30
2018-12-10T11:39:04.902Z,1007.27
2018-12-10T11:40:10.437Z,1007.29
2018-12-10T11:41:15.967Z,1007.20
2018-12-10T11:42:21.503Z,1007.20
2018-12-10T11:43:27.035Z,1007.24
2018-12-10T11:44:32.562Z,1007.26
2018-12-10T11:45:38.096Z,1007.29
2018-12-10T11:46:43.633Z,1007.25
2018-12-10T11:47:49.199Z,1007.24
2018-12-10T11:48:54.698Z,1007.23
2018-12-10T11:50:00.225Z,1007.24
2018-12-10T11:51:05.763Z,1007.15
2018-12-10T11:52:11.290Z,1007.12
2018-12-10T11:53:16.826Z,1007.10
2018-12-10T11:54:22.361Z,1007.09
2018-12-10T11:55:27.889Z,1007.15
2018-12-10T11:56:33.428Z,1007.16
2018-12-10T11:57:38.953Z,1007.15
2018-12-10T11:58:44.489Z,1007.15
2018-12-10T11:59:50.020Z,1007.07
2018-12-10T12:00:55.556Z,1007.02
2018-12-10T12:02:01.092Z,1006.98
2018-12-10T12:03:06.620Z,1006.98
2018-12-10T12:04:12.155Z,1006.92
2018-12-10T12:05:17.684Z,1006.96
2018-12-10T12:07:54.834Z,1007.07
2018-12-10T12:09:00.319Z,1007.04
2018-12-10T12:10:58.724Z,1006.99
2018-12-10T12:12:04.260Z,1006.99
2018-12-10T12:14:02.676Z,1007.08
2018-12-10T12:15:08.183Z,1007.07
2018-12-10T12:17:06.587Z,1007.07
2018-12-10T12:18:12.114Z,1007.04
2018-12-10T12:20:10.552Z,1007.00
2018-12-10T12:21:16.051Z,1006.94
2018-12-10T12:22:21.581Z,1006.91
2018-12-10T12:23:27.111Z,1006.97
2018-12-10T12:24:32.646Z,1006.99
2018-12-10T12:25:38.177Z,1007.02
2018-12-10T12:26:45.547Z,1006.94
2018-12-10T12:27:49.243Z,1006.95
2018-12-10T12:28:54.770Z,1006.88
2018-12-10T12:30:00.303Z,1006.89
2018-12-10T12:31:05.829Z,1006.94
2018-12-10T12:32:11.366Z,1006.89
2018-12-10T12:33:17.009Z,1006.94
2018-12-10T12:34:22.432Z,1006.90
2018-12-10T12:35:27.962Z,1006.88
2018-12-10T12:36:33.504Z,1006.91
2018-12-10T12:37:39.030Z,1006.84
2018-12-10T12:38:44.560Z,1006.82
2018-12-10T12:39:50.094Z,1006.84
2018-12-10T12:40:55.638Z,1006.79
2018-12-10T12:42:01.166Z,1006.76
2018-12-10T12:43:12.159Z,1006.80
2018-12-10T12:44:12.222Z,1006.80
2018-12-10T12:45:17.767Z,1006.81
2018-12-10T12:46:23.290Z,1006.78
2018-12-10T12:47:28.825Z,1006.90
2018-12-10T12:48:34.361Z,1006.96
2018-12-10T12:49:39.890Z,1006.95
2018-12-10T12:50:45.422Z,1007.02
2018-12-10T12:51:50.953Z,1007.01
2018-12-10T12:52:56.481Z,1007.16
2018-12-10T12:54:02.016Z,1007.13
2018-12-10T12:55:07.546Z,1007.10
2018-12-10T12:56:13.082Z,1007.20
2018-12-10T12:57:18.617Z,1007.13
2018-12-10T12:58:24.149Z,1007.04
2018-12-10T12:59:29.679Z,1007.07
2018-12-10T13:00:41.798Z,1007.05
2018-12-10T13:01:48.956Z,1006.97
2018-12-10T13:02:46.268Z,1006.98
2018-12-10T13:03:51.809Z,1006.92
2018-12-10T13:04:57.344Z,1006.92
2018-12-10T13:06:06.784Z,1006.96
2018-12-10T13:07:08.399Z,1007.04
2018-12-10T13:08:13.931Z,1007.02
2018-12-10T13:09:21.899Z,1007.01
2018-12-10T13:10:24.994Z,1007.00
2018-12-10T13:11:30.528Z,1006.96
2018-12-10T13:12:36.060Z,1006.97
2018-12-10T13:13:41.589Z,1006.98
2018-12-10T13:14:47.125Z,1007.00
2018-12-10T13:15:52.657Z,1007.02
2018-12-10T13:16:58.187Z,1006.98